sensor_id;sensor_type;location;lat;lon;timestamp;P1;durP1;ratioP1;P2;durP2;ratioP2
70814;SDS011;58428;49.478;10.986;2023-07-24T00:00:30;8.43;;;4.50;;
70814;SDS011;58428;49.478;10.986;2023-07-24T00:02:57;8.00;;;4.30;;
70814;SDS011;58428;49.478;10.986;2023-07-24T00:05:24;7.43;;;4.05;;
70814;SDS011;58428;49.478;10.986;2023-07-24T00:07:49;8.38;;;4.22;;
70814;SDS011;58428;49.478;10.986;2023-07-24T00:10:16;8.13;;;4.38;;
70814;SDS011;58428;49.478;10.986;2023-07-24T00:12:41;9.05;;;4.60;;
70814;SDS011;58428;49.478;10.986;2023-07-24T00:15:07;9.38;;;4.70;;
70814;SDS011;58428;49.478;10.986;2023-07-24T00:17:34;10.85;;;4.82;;
70814;SDS011;58428;49.478;10.986;2023-07-24T00:19:59;8.65;;;4.15;;
70814;SDS011;58428;49.478;10.986;2023-07-24T00:22:25;10.80;;;4.38;;
70814;SDS011;58428;49.478;10.986;2023-07-24T00:24:51;8.43;;;4.28;;
70814;SDS011;58428;49.478;10.986;2023-07-24T00:27:17;10.77;;;4.60;;
70814;SDS011;58428;49.478;10.986;2023-07-24T00:29:43;9.10;;;4.68;;
70814;SDS011;58428;49.478;10.986;2023-07-24T00:34:35;8.20;;;4.23;;
70814;SDS011;58428;49.478;10.986;2023-07-24T00:37:04;9.73;;;5.13;;
70814;SDS011;58428;49.478;10.986;2023-07-24T00:41:55;9.95;;;4.40;;
70814;SDS011;58428;49.478;10.986;2023-07-24T00:44:21;8.50;;;4.47;;
70814;SDS011;58428;49.478;10.986;2023-07-24T00:46:47;10.55;;;4.80;;
70814;SDS011;58428;49.478;10.986;2023-07-24T00:49:15;9.55;;;4.03;;
70814;SDS011;58428;49.478;10.986;2023-07-24T00:51:42;9.05;;;4.45;;
70814;SDS011;58428;49.478;10.986;2023-07-24T00:54:09;9.90;;;4.10;;
70814;SDS011;58428;49.478;10.986;2023-07-24T00:56:36;8.98;;;4.30;;
70814;SDS011;58428;49.478;10.986;2023-07-24T00:59:02;7.72;;;4.20;;
70814;SDS011;58428;49.478;10.986;2023-07-24T01:01:28;10.15;;;4.60;;
70814;SDS011;58428;49.478;10.986;2023-07-24T01:03:53;9.38;;;4.65;;
70814;SDS011;58428;49.478;10.986;2023-07-24T01:06:21;9.52;;;4.53;;
70814;SDS011;58428;49.478;10.986;2023-07-24T01:08:48;9.20;;;4.78;;
70814;SDS011;58428;49.478;10.986;2023-07-24T01:14:00;9.02;;;4.20;;
70814;SDS011;58428;49.478;10.986;2023-07-24T01:16:36;9.20;;;4.50;;
70814;SDS011;58428;49.478;10.986;2023-07-24T01:19:09;10.00;;;5.10;;
70814;SDS011;58428;49.478;10.986;2023-07-24T01:21:44;9.07;;;4.55;;
70814;SDS011;58428;49.478;10.986;2023-07-24T01:27:00;9.95;;;4.65;;
70814;SDS011;58428;49.478;10.986;2023-07-24T01:29:26;9.25;;;4.60;;
70814;SDS011;58428;49.478;10.986;2023-07-24T01:34:16;8.30;;;4.47;;
70814;SDS011;58428;49.478;10.986;2023-07-24T01:36:42;8.75;;;4.32;;
70814;SDS011;58428;49.478;10.986;2023-07-24T01:41:33;10.30;;;4.43;;
70814;SDS011;58428;49.478;10.986;2023-07-24T01:46:24;10.35;;;4.60;;
70814;SDS011;58428;49.478;10.986;2023-07-24T01:48:50;8.82;;;4.80;;
70814;SDS011;58428;49.478;10.986;2023-07-24T01:51:17;9.90;;;4.85;;
70814;SDS011;58428;49.478;10.986;2023-07-24T01:53:44;13.15;;;5.40;;
70814;SDS011;58428;49.478;10.986;2023-07-24T01:58:35;11.43;;;5.50;;
70814;SDS011;58428;49.478;10.986;2023-07-24T02:03:25;9.43;;;5.13;;
70814;SDS011;58428;49.478;10.986;2023-07-24T02:05:51;9.40;;;5.03;;
70814;SDS011;58428;49.478;10.986;2023-07-24T02:08:16;10.68;;;5.47;;
70814;SDS011;58428;49.478;10.986;2023-07-24T02:13:07;9.43;;;4.68;;
70814;SDS011;58428;49.478;10.986;2023-07-24T02:15:34;9.50;;;5.15;;
70814;SDS011;58428;49.478;10.986;2023-07-24T02:20:25;9.43;;;4.53;;
70814;SDS011;58428;49.478;10.986;2023-07-24T02:22:50;10.00;;;5.32;;
70814;SDS011;58428;49.478;10.986;2023-07-24T02:25:16;10.70;;;5.28;;
70814;SDS011;58428;49.478;10.986;2023-07-24T02:27:43;9.45;;;5.00;;
70814;SDS011;58428;49.478;10.986;2023-07-24T02:32:37;9.70;;;4.90;;
70814;SDS011;58428;49.478;10.986;2023-07-24T02:35:03;10.52;;;4.78;;
70814;SDS011;58428;49.478;10.986;2023-07-24T02:37:30;10.00;;;5.20;;
70814;SDS011;58428;49.478;10.986;2023-07-24T02:42:21;10.10;;;5.27;;
70814;SDS011;58428;49.478;10.986;2023-07-24T02:44:46;10.35;;;4.90;;
70814;SDS011;58428;49.478;10.986;2023-07-24T02:47:13;11.00;;;5.80;;
70814;SDS011;58428;49.478;10.986;2023-07-24T02:52:05;9.50;;;5.03;;
70814;SDS011;58428;49.478;10.986;2023-07-24T02:54:31;11.43;;;5.10;;
70814;SDS011;58428;49.478;10.986;2023-07-24T02:59:23;9.48;;;4.72;;
70814;SDS011;58428;49.478;10.986;2023-07-24T03:04:14;10.00;;;5.33;;
70814;SDS011;58428;49.478;10.986;2023-07-24T03:09:08;11.65;;;5.60;;
70814;SDS011;58428;49.478;10.986;2023-07-24T03:11:33;10.50;;;5.22;;
70814;SDS011;58428;49.478;10.986;2023-07-24T03:16:25;9.27;;;4.60;;
70814;SDS011;58428;49.478;10.986;2023-07-24T03:18:50;8.38;;;4.68;;
70814;SDS011;58428;49.478;10.986;2023-07-24T03:21:19;9.52;;;4.65;;
70814;SDS011;58428;49.478;10.986;2023-07-24T03:23:45;10.38;;;5.65;;
70814;SDS011;58428;49.478;10.986;2023-07-24T03:28:37;10.00;;;5.68;;
70814;SDS011;58428;49.478;10.986;2023-07-24T03:33:27;11.60;;;5.77;;
70814;SDS011;58428;49.478;10.986;2023-07-24T03:38:19;9.80;;;5.07;;
70814;SDS011;58428;49.478;10.986;2023-07-24T03:40:45;11.30;;;5.40;;
70814;SDS011;58428;49.478;10.986;2023-07-24T03:43:12;11.15;;;5.72;;
70814;SDS011;58428;49.478;10.986;2023-07-24T03:48:03;11.33;;;5.27;;
70814;SDS011;58428;49.478;10.986;2023-07-24T03:50:29;15.85;;;6.15;;
70814;SDS011;58428;49.478;10.986;2023-07-24T03:52:56;11.10;;;5.57;;
70814;SDS011;58428;49.478;10.986;2023-07-24T03:57:47;10.95;;;5.47;;
70814;SDS011;58428;49.478;10.986;2023-07-24T04:00:13;12.68;;;5.68;;
70814;SDS011;58428;49.478;10.986;2023-07-24T04:05:04;12.23;;;5.93;;
70814;SDS011;58428;49.478;10.986;2023-07-24T04:09:55;10.48;;;5.13;;
70814;SDS011;58428;49.478;10.986;2023-07-24T04:14:46;9.90;;;5.27;;
70814;SDS011;58428;49.478;10.986;2023-07-24T04:17:13;10.25;;;5.75;;
70814;SDS011;58428;49.478;10.986;2023-07-24T04:22:04;11.17;;;5.33;;
70814;SDS011;58428;49.478;10.986;2023-07-24T04:26:55;11.47;;;6.03;;
70814;SDS011;58428;49.478;10.986;2023-07-24T04:29:20;10.20;;;5.85;;
70814;SDS011;58428;49.478;10.986;2023-07-24T04:31:48;11.30;;;6.22;;
70814;SDS011;58428;49.478;10.986;2023-07-24T04:34:15;11.05;;;5.60;;
70814;SDS011;58428;49.478;10.986;2023-07-24T04:39:06;10.73;;;5.43;;
70814;SDS011;58428;49.478;10.986;2023-07-24T04:41:31;10.88;;;5.80;;
70814;SDS011;58428;49.478;10.986;2023-07-24T04:43:56;10.45;;;5.72;;
70814;SDS011;58428;49.478;10.986;2023-07-24T04:46:22;10.75;;;6.20;;
70814;SDS011;58428;49.478;10.986;2023-07-24T04:48:48;11.80;;;6.05;;
70814;SDS011;58428;49.478;10.986;2023-07-24T04:51:15;12.95;;;6.32;;
70814;SDS011;58428;49.478;10.986;2023-07-24T04:53:40;15.57;;;6.82;;
70814;SDS011;58428;49.478;10.986;2023-07-24T04:56:07;12.88;;;7.10;;
70814;SDS011;58428;49.478;10.986;2023-07-24T04:58:33;12.38;;;7.25;;
70814;SDS011;58428;49.478;10.986;2023-07-24T05:01:01;14.45;;;8.10;;
70814;SDS011;58428;49.478;10.986;2023-07-24T05:03:27;14.88;;;7.80;;
70814;SDS011;58428;49.478;10.986;2023-07-24T05:05:56;11.68;;;7.03;;
70814;SDS011;58428;49.478;10.986;2023-07-24T05:08:22;12.90;;;7.07;;
70814;SDS011;58428;49.478;10.986;2023-07-24T05:10:53;11.40;;;6.22;;
70814;SDS011;58428;49.478;10.986;2023-07-24T05:13:19;11.05;;;6.40;;
70814;SDS011;58428;49.478;10.986;2023-07-24T05:18:10;12.83;;;6.60;;
70814;SDS011;58428;49.478;10.986;2023-07-24T05:23:01;12.60;;;5.82;;
70814;SDS011;58428;49.478;10.986;2023-07-24T05:25:26;12.52;;;6.45;;
70814;SDS011;58428;49.478;10.986;2023-07-24T05:27:53;10.68;;;6.03;;
70814;SDS011;58428;49.478;10.986;2023-07-24T05:32:43;11.60;;;6.95;;
70814;SDS011;58428;49.478;10.986;2023-07-24T05:37:36;11.38;;;6.20;;
70814;SDS011;58428;49.478;10.986;2023-07-24T05:42:28;12.30;;;6.57;;
70814;SDS011;58428;49.478;10.986;2023-07-24T05:44:53;13.75;;;6.88;;
70814;SDS011;58428;49.478;10.986;2023-07-24T05:47:19;11.82;;;6.60;;
70814;SDS011;58428;49.478;10.986;2023-07-24T05:49:44;11.50;;;6.10;;
70814;SDS011;58428;49.478;10.986;2023-07-24T05:52:09;12.77;;;6.40;;
70814;SDS011;58428;49.478;10.986;2023-07-24T05:54:35;11.88;;;6.32;;
70814;SDS011;58428;49.478;10.986;2023-07-24T05:57:01;11.68;;;6.22;;
70814;SDS011;58428;49.478;10.986;2023-07-24T05:59:26;13.65;;;6.50;;
70814;SDS011;58428;49.478;10.986;2023-07-24T06:01:51;11.88;;;6.53;;
70814;SDS011;58428;49.478;10.986;2023-07-24T06:04:17;10.32;;;5.50;;
70814;SDS011;58428;49.478;10.986;2023-07-24T06:06:43;11.52;;;6.20;;
70814;SDS011;58428;49.478;10.986;2023-07-24T06:09:08;13.98;;;6.38;;
70814;SDS011;58428;49.478;10.986;2023-07-24T06:11:33;12.48;;;6.65;;
70814;SDS011;58428;49.478;10.986;2023-07-24T06:13:59;11.32;;;6.25;;
70814;SDS011;58428;49.478;10.986;2023-07-24T06:16:24;12.50;;;6.30;;
70814;SDS011;58428;49.478;10.986;2023-07-24T06:18:50;12.10;;;5.85;;
70814;SDS011;58428;49.478;10.986;2023-07-24T06:21:15;9.02;;;5.13;;
70814;SDS011;58428;49.478;10.986;2023-07-24T06:23:40;11.10;;;6.00;;
70814;SDS011;58428;49.478;10.986;2023-07-24T06:26:06;12.13;;;6.82;;
70814;SDS011;58428;49.478;10.986;2023-07-24T06:28:31;12.90;;;6.32;;
70814;SDS011;58428;49.478;10.986;2023-07-24T06:30:58;11.27;;;5.95;;
70814;SDS011;58428;49.478;10.986;2023-07-24T06:33:25;10.90;;;5.72;;
70814;SDS011;58428;49.478;10.986;2023-07-24T06:35:51;11.93;;;6.05;;
70814;SDS011;58428;49.478;10.986;2023-07-24T06:38:17;12.27;;;6.80;;
70814;SDS011;58428;49.478;10.986;2023-07-24T06:40:43;12.48;;;6.28;;
70814;SDS011;58428;49.478;10.986;2023-07-24T06:43:08;10.98;;;6.18;;
70814;SDS011;58428;49.478;10.986;2023-07-24T06:45:33;12.63;;;7.00;;
70814;SDS011;58428;49.478;10.986;2023-07-24T06:48:00;14.35;;;6.80;;
70814;SDS011;58428;49.478;10.986;2023-07-24T06:50:25;10.98;;;6.30;;
70814;SDS011;58428;49.478;10.986;2023-07-24T06:52:52;10.85;;;6.28;;
70814;SDS011;58428;49.478;10.986;2023-07-24T06:55:19;9.98;;;5.50;;
70814;SDS011;58428;49.478;10.986;2023-07-24T06:57:44;12.98;;;6.70;;
70814;SDS011;58428;49.478;10.986;2023-07-24T07:00:10;11.75;;;6.63;;
70814;SDS011;58428;49.478;10.986;2023-07-24T07:02:38;10.88;;;6.18;;
70814;SDS011;58428;49.478;10.986;2023-07-24T07:05:04;12.38;;;6.13;;
70814;SDS011;58428;49.478;10.986;2023-07-24T07:07:30;11.25;;;6.32;;
70814;SDS011;58428;49.478;10.986;2023-07-24T07:09:56;12.13;;;6.60;;
70814;SDS011;58428;49.478;10.986;2023-07-24T07:12:21;11.05;;;6.43;;
70814;SDS011;58428;49.478;10.986;2023-07-24T07:14:48;12.48;;;6.82;;
70814;SDS011;58428;49.478;10.986;2023-07-24T07:17:13;10.25;;;5.72;;
70814;SDS011;58428;49.478;10.986;2023-07-24T07:19:39;12.43;;;6.50;;
70814;SDS011;58428;49.478;10.986;2023-07-24T07:22:05;13.48;;;6.45;;
70814;SDS011;58428;49.478;10.986;2023-07-24T07:24:30;12.13;;;6.43;;
70814;SDS011;58428;49.478;10.986;2023-07-24T07:26:55;10.95;;;6.38;;
70814;SDS011;58428;49.478;10.986;2023-07-24T07:29:22;10.40;;;5.60;;
70814;SDS011;58428;49.478;10.986;2023-07-24T17:51:00;11.27;;;6.20;;
70814;SDS011;58428;49.478;10.986;2023-07-24T17:53:37;11.43;;;5.07;;
70814;SDS011;58428;49.478;10.986;2023-07-24T17:56:14;9.20;;;4.88;;
70814;SDS011;58428;49.478;10.986;2023-07-24T17:58:48;10.05;;;5.72;;
70814;SDS011;58428;49.478;10.986;2023-07-24T18:01:13;9.45;;;5.60;;
70814;SDS011;58428;49.478;10.986;2023-07-24T18:03:55;17.00;;;11.68;;
70814;SDS011;58428;49.478;10.986;2023-07-24T18:06:24;8.30;;;4.93;;
70814;SDS011;58428;49.478;10.986;2023-07-24T18:08:51;8.43;;;3.55;;
70814;SDS011;58428;49.478;10.986;2023-07-24T18:11:21;6.43;;;3.25;;
70814;SDS011;58428;49.478;10.986;2023-07-24T18:13:56;7.22;;;3.00;;
70814;SDS011;58428;49.478;10.986;2023-07-24T18:16:21;5.28;;;2.42;;
70814;SDS011;58428;49.478;10.986;2023-07-24T18:18:50;4.32;;;2.10;;
70814;SDS011;58428;49.478;10.986;2023-07-24T18:21:16;4.22;;;2.20;;
70814;SDS011;58428;49.478;10.986;2023-07-24T18:23:54;5.53;;;2.30;;
70814;SDS011;58428;49.478;10.986;2023-07-24T18:26:35;4.57;;;2.10;;
70814;SDS011;58428;49.478;10.986;2023-07-24T18:29:01;4.57;;;2.20;;
70814;SDS011;58428;49.478;10.986;2023-07-24T18:31:27;4.63;;;2.10;;
70814;SDS011;58428;49.478;10.986;2023-07-24T18:33:53;3.47;;;1.88;;
70814;SDS011;58428;49.478;10.986;2023-07-24T18:36:19;4.20;;;1.98;;
70814;SDS011;58428;49.478;10.986;2023-07-24T18:38:45;4.35;;;2.30;;
70814;SDS011;58428;49.478;10.986;2023-07-24T18:41:15;5.13;;;2.40;;
70814;SDS011;58428;49.478;10.986;2023-07-24T18:43:40;5.55;;;2.25;;
70814;SDS011;58428;49.478;10.986;2023-07-24T18:46:08;4.93;;;2.25;;
70814;SDS011;58428;49.478;10.986;2023-07-24T18:48:41;4.50;;;2.00;;
70814;SDS011;58428;49.478;10.986;2023-07-24T18:51:09;4.03;;;2.10;;
70814;SDS011;58428;49.478;10.986;2023-07-24T18:53:37;9.65;;;5.22;;
70814;SDS011;58428;49.478;10.986;2023-07-24T18:56:27;5.55;;;2.80;;
70814;SDS011;58428;49.478;10.986;2023-07-24T18:58:53;8.00;;;2.90;;
70814;SDS011;58428;49.478;10.986;2023-07-24T19:01:21;4.47;;;2.28;;
70814;SDS011;58428;49.478;10.986;2023-07-24T19:03:52;6.88;;;3.78;;
70814;SDS011;58428;49.478;10.986;2023-07-24T19:06:17;9.07;;;5.20;;
70814;SDS011;58428;49.478;10.986;2023-07-24T19:08:48;5.18;;;2.67;;
70814;SDS011;58428;49.478;10.986;2023-07-24T19:11:32;6.05;;;2.97;;
70814;SDS011;58428;49.478;10.986;2023-07-24T19:13:58;6.05;;;2.80;;
70814;SDS011;58428;49.478;10.986;2023-07-24T19:16:23;6.85;;;2.85;;
70814;SDS011;58428;49.478;10.986;2023-07-24T19:18:51;5.43;;;3.00;;
70814;SDS011;58428;49.478;10.986;2023-07-24T19:21:35;6.30;;;2.80;;
70814;SDS011;58428;49.478;10.986;2023-07-24T19:24:02;5.78;;;3.00;;
70814;SDS011;58428;49.478;10.986;2023-07-24T19:26:28;5.38;;;2.78;;
70814;SDS011;58428;49.478;10.986;2023-07-24T19:29:09;5.82;;;2.97;;
70814;SDS011;58428;49.478;10.986;2023-07-24T19:31:37;6.00;;;3.08;;
70814;SDS011;58428;49.478;10.986;2023-07-24T19:34:02;7.85;;;3.30;;
70814;SDS011;58428;49.478;10.986;2023-07-24T19:36:35;6.78;;;3.10;;
70814;SDS011;58428;49.478;10.986;2023-07-24T19:39:22;5.68;;;3.08;;
70814;SDS011;58428;49.478;10.986;2023-07-24T19:44:40;6.93;;;3.15;;
70814;SDS011;58428;49.478;10.986;2023-07-24T19:47:05;6.07;;;3.15;;
70814;SDS011;58428;49.478;10.986;2023-07-24T19:49:38;6.85;;;3.17;;
70814;SDS011;58428;49.478;10.986;2023-07-24T19:52:06;5.85;;;3.13;;
70814;SDS011;58428;49.478;10.986;2023-07-24T19:54:36;5.65;;;3.10;;
70814;SDS011;58428;49.478;10.986;2023-07-24T19:57:05;5.95;;;2.95;;
70814;SDS011;58428;49.478;10.986;2023-07-24T19:59:40;6.22;;;3.20;;
70814;SDS011;58428;49.478;10.986;2023-07-24T20:02:08;4.68;;;2.72;;
70814;SDS011;58428;49.478;10.986;2023-07-24T20:04:34;5.53;;;2.83;;
70814;SDS011;58428;49.478;10.986;2023-07-24T20:07:00;5.30;;;2.60;;
70814;SDS011;58428;49.478;10.986;2023-07-24T20:09:31;23.80;;;17.73;;
70814;SDS011;58428;49.478;10.986;2023-07-24T20:11:58;6.03;;;3.70;;
70814;SDS011;58428;49.478;10.986;2023-07-24T20:14:31;6.45;;;3.20;;
70814;SDS011;58428;49.478;10.986;2023-07-24T20:19:44;6.45;;;3.05;;
70814;SDS011;58428;49.478;10.986;2023-07-24T20:22:13;5.38;;;2.53;;
70814;SDS011;58428;49.478;10.986;2023-07-24T20:24:40;5.55;;;2.47;;
70814;SDS011;58428;49.478;10.986;2023-07-24T20:27:06;5.22;;;2.60;;
70814;SDS011;58428;49.478;10.986;2023-07-24T20:29:33;5.28;;;2.33;;
70814;SDS011;58428;49.478;10.986;2023-07-24T20:32:00;5.05;;;2.40;;
70814;SDS011;58428;49.478;10.986;2023-07-24T20:34:25;4.20;;;2.22;;
70814;SDS011;58428;49.478;10.986;2023-07-24T20:36:52;4.68;;;2.30;;
70814;SDS011;58428;49.478;10.986;2023-07-24T20:39:18;4.50;;;2.30;;
70814;SDS011;58428;49.478;10.986;2023-07-24T20:41:45;4.47;;;2.40;;
70814;SDS011;58428;49.478;10.986;2023-07-24T20:44:14;4.97;;;2.42;;
70814;SDS011;58428;49.478;10.986;2023-07-24T20:46:41;6.05;;;2.90;;
70814;SDS011;58428;49.478;10.986;2023-07-24T20:49:07;5.88;;;2.50;;
70814;SDS011;58428;49.478;10.986;2023-07-24T20:51:34;5.15;;;2.53;;
70814;SDS011;58428;49.478;10.986;2023-07-24T20:54:08;5.25;;;2.67;;
70814;SDS011;58428;49.478;10.986;2023-07-24T20:56:44;4.10;;;2.20;;
70814;SDS011;58428;49.478;10.986;2023-07-24T20:59:11;4.15;;;2.47;;
70814;SDS011;58428;49.478;10.986;2023-07-24T21:01:36;4.97;;;2.45;;
70814;SDS011;58428;49.478;10.986;2023-07-24T21:04:21;4.70;;;2.70;;
70814;SDS011;58428;49.478;10.986;2023-07-24T21:06:56;5.55;;;3.20;;
70814;SDS011;58428;49.478;10.986;2023-07-24T21:09:24;4.50;;;2.60;;
70814;SDS011;58428;49.478;10.986;2023-07-24T21:11:50;5.50;;;3.00;;
70814;SDS011;58428;49.478;10.986;2023-07-24T21:16:43;6.43;;;3.20;;
70814;SDS011;58428;49.478;10.986;2023-07-24T21:21:35;4.50;;;2.55;;
70814;SDS011;58428;49.478;10.986;2023-07-24T21:26:26;4.68;;;2.42;;
70814;SDS011;58428;49.478;10.986;2023-07-24T21:28:52;6.78;;;2.30;;
70814;SDS011;58428;49.478;10.986;2023-07-24T21:31:17;4.40;;;2.33;;
70814;SDS011;58428;49.478;10.986;2023-07-24T21:33:44;4.63;;;2.50;;
70814;SDS011;58428;49.478;10.986;2023-07-24T21:36:12;4.78;;;2.10;;
70814;SDS011;58428;49.478;10.986;2023-07-24T21:38:38;5.00;;;2.42;;
70814;SDS011;58428;49.478;10.986;2023-07-24T21:41:05;4.45;;;2.30;;
70814;SDS011;58428;49.478;10.986;2023-07-24T21:43:33;4.00;;;2.28;;
70814;SDS011;58428;49.478;10.986;2023-07-24T21:46:01;4.03;;;2.30;;
70814;SDS011;58428;49.478;10.986;2023-07-24T21:48:32;4.97;;;2.38;;
70814;SDS011;58428;49.478;10.986;2023-07-24T21:53:26;4.68;;;2.20;;
70814;SDS011;58428;49.478;10.986;2023-07-24T21:55:52;3.67;;;2.10;;
70814;SDS011;58428;49.478;10.986;2023-07-24T22:00:47;5.28;;;2.58;;
70814;SDS011;58428;49.478;10.986;2023-07-24T22:03:18;4.07;;;2.20;;
70814;SDS011;58428;49.478;10.986;2023-07-24T22:05:45;3.95;;;2.10;;
70814;SDS011;58428;49.478;10.986;2023-07-24T22:08:14;4.40;;;2.40;;
70814;SDS011;58428;49.478;10.986;2023-07-24T22:10:42;4.85;;;2.63;;
70814;SDS011;58428;49.478;10.986;2023-07-24T22:13:08;6.10;;;2.58;;
70814;SDS011;58428;49.478;10.986;2023-07-24T22:15:35;4.03;;;2.35;;
70814;SDS011;58428;49.478;10.986;2023-07-24T22:18:05;5.50;;;2.47;;
70814;SDS011;58428;49.478;10.986;2023-07-24T22:20:31;4.93;;;2.45;;
70814;SDS011;58428;49.478;10.986;2023-07-24T22:22:58;4.65;;;2.40;;
70814;SDS011;58428;49.478;10.986;2023-07-24T22:27:50;3.40;;;1.92;;
70814;SDS011;58428;49.478;10.986;2023-07-24T22:30:18;4.38;;;1.90;;
70814;SDS011;58428;49.478;10.986;2023-07-24T22:32:44;3.72;;;1.75;;
70814;SDS011;58428;49.478;10.986;2023-07-24T22:35:10;4.05;;;2.20;;
70814;SDS011;58428;49.478;10.986;2023-07-24T22:37:37;3.72;;;2.17;;
70814;SDS011;58428;49.478;10.986;2023-07-24T22:40:03;4.22;;;2.40;;
70814;SDS011;58428;49.478;10.986;2023-07-24T22:42:29;4.55;;;2.30;;
70814;SDS011;58428;49.478;10.986;2023-07-24T22:44:58;5.10;;;2.50;;
70814;SDS011;58428;49.478;10.986;2023-07-24T22:49:49;4.95;;;2.45;;
70814;SDS011;58428;49.478;10.986;2023-07-24T22:54:42;4.05;;;2.10;;
70814;SDS011;58428;49.478;10.986;2023-07-24T22:59:33;4.17;;;2.07;;
70814;SDS011;58428;49.478;10.986;2023-07-24T23:02:03;4.68;;;2.30;;
70814;SDS011;58428;49.478;10.986;2023-07-24T23:04:31;4.28;;;2.00;;
70814;SDS011;58428;49.478;10.986;2023-07-24T23:10:00;5.93;;;2.30;;
70814;SDS011;58428;49.478;10.986;2023-07-24T23:12:29;4.32;;;2.20;;
70814;SDS011;58428;49.478;10.986;2023-07-24T23:14:56;4.18;;;2.10;;
70814;SDS011;58428;49.478;10.986;2023-07-24T23:17:21;4.95;;;2.15;;
70814;SDS011;58428;49.478;10.986;2023-07-24T23:19:48;4.47;;;2.20;;
70814;SDS011;58428;49.478;10.986;2023-07-24T23:22:14;4.47;;;2.08;;
70814;SDS011;58428;49.478;10.986;2023-07-24T23:24:41;4.88;;;2.05;;
70814;SDS011;58428;49.478;10.986;2023-07-24T23:27:09;5.28;;;2.63;;
70814;SDS011;58428;49.478;10.986;2023-07-24T23:29:35;4.50;;;2.42;;
70814;SDS011;58428;49.478;10.986;2023-07-24T23:32:02;3.50;;;2.00;;
70814;SDS011;58428;49.478;10.986;2023-07-24T23:34:30;4.22;;;2.30;;
70814;SDS011;58428;49.478;10.986;2023-07-24T23:36:58;3.75;;;2.15;;
70814;SDS011;58428;49.478;10.986;2023-07-24T23:39:24;5.65;;;2.22;;
70814;SDS011;58428;49.478;10.986;2023-07-24T23:44:17;4.45;;;2.10;;
70814;SDS011;58428;49.478;10.986;2023-07-24T23:49:09;4.13;;;2.28;;
70814;SDS011;58428;49.478;10.986;2023-07-24T23:54:03;4.43;;;2.20;;
70814;SDS011;58428;49.478;10.986;2023-07-24T23:56:29;4.70;;;2.53;;
